Terminal Aerodrome Forecast
Issued by NWS

Home | Current Version | Previous Version | Text Only | Print | Product List | Glossary On
Versions: 1 2 3 4 5 6 7 8 9 10 11 12 13
000
FTUS43 KLSX 190500
TAFCPS
TAF
KCPS 190526Z 1906/2006 15006KT P6SM SKC
     FM190700 18008KT P6SM BKN100 WS020/24050KT
     FM191100 25011KT P6SM BKN100
     FM191700 29013G23KT P6SM BKN035
     FM192300 28005KT P6SM FEW040=

USA.gov is the U.S. government's official web portal to all federal, state and local government web resources and services.